Time;durP1;ratioP1;P1;durP2;ratioP2;P2;SDS_P1;SDS_P2;PMS_P1;PMS_P2;Temp;Humidity;BMP_temperature;BMP_pressure;BME280_temperature;BME280_humidity;BME280_pressure;Samples;Min_cycle;Max_cycle;Signal;HPM_P1;HPM_P2
2022/03/05 00:01:51;;;;;;;;;;;17.60;49.20;;;;;;5041830;28;19973;-57
2022/03/05 00:04:17;;;;;;;;;;;17.60;49.20;;;;;;5040521;28;20306;-57
2022/03/05 00:06:43;;;;;;;;;;;17.60;49.20;;;;;;5039926;28;20366;-53
2022/03/05 00:09:08;;;;;;;;;;;17.60;49.20;;;;;;5021916;28;19917;-56
2022/03/05 00:11:33;;;;;;;;;;;17.60;49.20;;;;;;5040654;28;20377;-55
2022/03/05 00:13:59;;;;;;;;;;;17.50;49.20;;;;;;5041496;28;19991;-55
2022/03/05 00:16:24;;;;;;;;;;;17.60;49.10;;;;;;5043895;28;19951;-55
2022/03/05 00:18:50;;;;;;;;;;;17.60;49.10;;;;;;5044460;28;20425;-57
2022/03/05 00:21:15;;;;;;;;;;;17.60;49.00;;;;;;5044136;28;20192;-57
2022/03/05 00:23:41;;;;;;;;;;;17.60;49.00;;;;;;5044688;28;20205;-56
2022/03/05 00:26:06;;;;;;;;;;;17.50;49.60;;;;;;5044280;28;19917;-57
2022/03/05 00:28:32;;;;;;;;;;;17.50;49.00;;;;;;5025674;28;19935;-55
2022/03/05 00:31:00;;;;;;;;;;;17.60;49.00;;;;;;5044484;28;20393;-54
2022/03/05 00:33:25;;;;;;;;;;;17.60;49.00;;;;;;5043666;28;19913;-55
2022/03/05 00:35:51;;;;;;;;;;;17.50;49.10;;;;;;5044494;28;20109;-56
2022/03/05 00:38:16;;;;;;;;;;;17.50;49.10;;;;;;5044383;28;19913;-56
2022/03/05 00:40:42;;;;;;;;;;;17.50;49.10;;;;;;5045340;28;20476;-56
2022/03/05 00:43:07;;;;;;;;;;;17.50;49.10;;;;;;5042801;28;20352;-55
2022/03/05 00:45:33;;;;;;;;;;;17.50;49.00;;;;;;5044702;28;19936;-52
2022/03/05 00:47:58;;;;;;;;;;;17.50;49.00;;;;;;5043704;28;19916;-54
2022/03/05 00:50:24;;;;;;;;;;;17.50;49.00;;;;;;5043114;28;20091;-56
2022/03/05 00:52:49;;;;;;;;;;;17.50;49.10;;;;;;5043321;28;19913;-54
2022/03/05 00:55:15;;;;;;;;;;;17.50;49.10;;;;;;5025372;28;19920;-57
2022/03/05 00:57:40;;;;;;;;;;;17.40;49.10;;;;;;5042934;28;19983;-53
2022/03/05 01:00:06;;;;;;;;;;;17.40;49.20;;;;;;5042891;28;20488;-56
2022/03/05 01:02:32;;;;;;;;;;;17.40;49.10;;;;;;5044064;28;20559;-55
2022/03/05 01:04:57;;;;;;;;;;;17.40;49.10;;;;;;5043365;28;19916;-55
2022/03/05 01:07:22;;;;;;;;;;;17.40;49.10;;;;;;5044130;28;19921;-52
2022/03/05 01:09:48;;;;;;;;;;;17.40;49.80;;;;;;5043697;28;19921;-52
2022/03/05 01:12:13;;;;;;;;;;;17.40;49.10;;;;;;5044094;28;20292;-56
2022/03/05 01:14:39;;;;;;;;;;;17.40;49.10;;;;;;5044065;28;19952;-57
2022/03/05 01:17:04;;;;;;;;;;;17.50;49.00;;;;;;5043186;28;19923;-54
2022/03/05 01:19:30;;;;;;;;;;;17.40;49.10;;;;;;5041904;28;19912;-56
2022/03/05 01:21:55;;;;;;;;;;;17.40;49.20;;;;;;5043526;28;19921;-57
2022/03/05 01:24:21;;;;;;;;;;;17.40;49.20;;;;;;5042895;28;20378;-51
2022/03/05 01:26:46;;;;;;;;;;;17.40;49.10;;;;;;5043655;28;19925;-54
2022/03/05 01:29:11;;;;;;;;;;;17.30;49.10;;;;;;5042474;28;21560;-56
2022/03/05 01:31:37;;;;;;;;;;;17.30;49.30;;;;;;5044371;28;19913;-55
2022/03/05 01:34:02;;;;;;;;;;;17.30;49.30;;;;;;5042975;28;20372;-55
2022/03/05 01:36:28;;;;;;;;;;;17.30;49.20;;;;;;5042867;28;19913;-56
2022/03/05 01:38:53;;;;;;;;;;;17.30;49.20;;;;;;5043386;28;20015;-53
2022/03/05 01:41:19;;;;;;;;;;;17.40;49.20;;;;;;5023635;28;19913;-53
2022/03/05 01:43:51;;;;;;;;;;;17.40;49.20;;;;;;5042496;28;20381;-56
2022/03/05 01:46:28;;;;;;;;;;;17.40;49.10;;;;;;5040213;28;19924;-56
2022/03/05 01:48:54;;;;;;;;;;;17.30;49.20;;;;;;5041389;28;20180;-52
2022/03/05 01:51:19;;;;;;;;;;;17.40;49.30;;;;;;5043189;28;20431;-55
2022/03/05 01:53:44;;;;;;;;;;;17.30;49.20;;;;;;5043485;28;19920;-57
2022/03/05 01:56:10;;;;;;;;;;;17.30;49.10;;;;;;5042665;28;19913;-55
2022/03/05 01:58:35;;;;;;;;;;;17.30;49.20;;;;;;5022784;28;19917;-56
2022/03/05 02:01:01;;;;;;;;;;;17.40;49.30;;;;;;5043312;28;20349;-56
2022/03/05 02:03:26;;;;;;;;;;;17.30;49.20;;;;;;5041596;28;19921;-56
2022/03/05 02:05:52;;;;;;;;;;;17.30;49.10;;;;;;5043764;28;19927;-55
2022/03/05 02:08:17;;;;;;;;;;;17.30;49.10;;;;;;5041567;28;19956;-56
2022/03/05 02:10:43;;;;;;;;;;;17.30;49.10;;;;;;5041597;28;20294;-54
2022/03/05 02:13:08;;;;;;;;;;;17.30;49.10;;;;;;5042191;28;20344;-56
2022/03/05 02:15:34;;;;;;;;;;;17.30;49.20;;;;;;5042688;28;19919;-57
2022/03/05 02:17:59;;;;;;;;;;;17.20;49.20;;;;;;5042102;28;19917;-53
2022/03/05 02:20:28;;;;;;;;;;;17.30;49.30;;;;;;5023754;28;20376;-55
2022/03/05 02:22:55;;;;;;;;;;;17.20;49.20;;;;;;5041757;28;20174;-55
2022/03/05 02:25:20;;;;;;;;;;;17.20;49.20;;;;;;5041932;28;20000;-56
2022/03/05 02:27:46;;;;;;;;;;;17.30;49.10;;;;;;5042234;28;20011;-57
2022/03/05 02:30:11;;;;;;;;;;;17.30;49.10;;;;;;5041487;28;19916;-56
2022/03/05 02:32:37;;;;;;;;;;;17.20;49.00;;;;;;5024634;28;19955;-55
2022/03/05 02:35:02;;;;;;;;;;;17.20;49.10;;;;;;5041654;28;20378;-56
2022/03/05 02:37:28;;;;;;;;;;;17.20;49.30;;;;;;5040936;28;19913;-56
2022/03/05 02:39:53;;;;;;;;;;;17.20;49.20;;;;;;5040984;28;19924;-55
2022/03/05 02:42:19;;;;;;;;;;;17.20;49.10;;;;;;5042318;28;20301;-57
2022/03/05 02:44:44;;;;;;;;;;;17.20;49.10;;;;;;5041132;28;20169;-55
2022/03/05 02:47:10;;;;;;;;;;;17.20;49.10;;;;;;5040984;28;19917;-56
2022/03/05 02:49:36;;;;;;;;;;;17.20;49.10;;;;;;5041838;28;19921;-56
2022/03/05 02:52:01;;;;;;;;;;;17.20;49.00;;;;;;5041406;28;19917;-57
2022/03/05 02:54:27;;;;;;;;;;;17.20;49.20;;;;;;5040903;28;20167;-55
2022/03/05 02:56:52;;;;;;;;;;;17.20;49.10;;;;;;5041699;28;20012;-56
2022/03/05 02:59:18;;;;;;;;;;;17.10;49.10;;;;;;5040786;28;19917;-55
2022/03/05 03:01:43;;;;;;;;;;;17.10;49.20;;;;;;5040704;28;20374;-55
2022/03/05 03:04:09;;;;;;;;;;;17.00;49.30;;;;;;5041044;28;19913;-58
2022/03/05 03:06:34;;;;;;;;;;;17.10;49.30;;;;;;5041003;28;19925;-56
2022/03/05 03:09:00;;;;;;;;;;;17.10;49.30;;;;;;5039382;28;19956;-55
2022/03/05 03:11:25;;;;;;;;;;;17.10;49.30;;;;;;5040927;28;19916;-57
2022/03/05 03:13:51;;;;;;;;;;;17.10;49.20;;;;;;5041766;28;20000;-53
2022/03/05 03:16:16;;;;;;;;;;;17.00;49.20;;;;;;5041229;28;20226;-56
2022/03/05 03:18:42;;;;;;;;;;;17.10;49.20;;;;;;5041411;28;20601;-56
2022/03/05 03:21:07;;;;;;;;;;;17.00;49.20;;;;;;5021046;28;19921;-56
2022/03/05 03:23:33;;;;;;;;;;;17.10;49.30;;;;;;5040038;28;20210;-56
2022/03/05 03:25:58;;;;;;;;;;;17.10;49.30;;;;;;5041209;28;20461;-54
2022/03/05 03:28:24;;;;;;;;;;;17.10;49.40;;;;;;5040488;28;19912;-56
2022/03/05 03:30:49;;;;;;;;;;;17.00;49.30;;;;;;5041201;28;19962;-55
2022/03/05 03:33:15;;;;;;;;;;;17.00;49.40;;;;;;5039873;28;19917;-56
2022/03/05 03:35:40;;;;;;;;;;;17.00;49.40;;;;;;5040553;28;19913;-56
2022/03/05 03:38:05;;;;;;;;;;;17.00;49.40;;;;;;5022581;28;20366;-57
2022/03/05 03:40:31;;;;;;;;;;;17.00;49.20;;;;;;5040101;28;19921;-56
2022/03/05 03:42:56;;;;;;;;;;;17.00;49.30;;;;;;5040913;28;20324;-57
2022/03/05 03:45:22;;;;;;;;;;;17.00;49.20;;;;;;5040440;28;19913;-55
2022/03/05 03:47:49;;;;;;;;;;;17.10;49.10;;;;;;5040119;28;19944;-55
2022/03/05 03:50:15;;;;;;;;;;;17.00;49.20;;;;;;5044835;28;19975;-57
2022/03/05 03:52:40;;;;;;;;;;;17.10;49.00;;;;;;5047375;28;19916;-56
2022/03/05 03:55:07;;;;;;;;;;;17.00;49.00;;;;;;5028314;28;19917;-55
2022/03/05 03:57:32;;;;;;;;;;;17.10;49.00;;;;;;5047426;28;19912;-55
2022/03/05 03:59:57;;;;;;;;;;;17.10;48.90;;;;;;5046916;28;19947;-52
2022/03/05 04:02:23;;;;;;;;;;;17.10;48.90;;;;;;5047187;28;20427;-57
2022/03/05 04:04:48;;;;;;;;;;;17.00;48.80;;;;;;5047829;28;19913;-55
2022/03/05 04:09:58;;;;;;;;;;;17.10;48.70;;;;;;5043422;28;20000;-56
2022/03/05 04:12:24;;;;;;;;;;;17.10;48.70;;;;;;5046118;28;19917;-53
2022/03/05 04:14:49;;;;;;;;;;;17.00;48.50;;;;;;5047949;28;19925;-56
2022/03/05 04:17:15;;;;;;;;;;;17.10;48.60;;;;;;5045506;28;20294;-54
2022/03/05 04:19:41;;;;;;;;;;;17.10;48.50;;;;;;5046745;28;20290;-55
2022/03/05 04:22:06;;;;;;;;;;;17.10;48.60;;;;;;5046642;28;19987;-55
2022/03/05 04:24:32;;;;;;;;;;;17.10;48.50;;;;;;5046781;28;19919;-55
2022/03/05 04:26:57;;;;;;;;;;;17.10;48.50;;;;;;5047248;28;19952;-55
2022/03/05 04:29:23;;;;;;;;;;;17.10;48.50;;;;;;5046915;28;19916;-53
2022/03/05 04:31:48;;;;;;;;;;;17.10;48.50;;;;;;5046657;28;19913;-56
2022/03/05 04:34:14;;;;;;;;;;;17.10;48.60;;;;;;5046966;28;20008;-55
2022/03/05 04:36:39;;;;;;;;;;;17.10;48.60;;;;;;5028710;28;19920;-58
2022/03/05 04:39:04;;;;;;;;;;;17.20;48.40;;;;;;5046589;28;20362;-56
2022/03/05 04:41:30;;;;;;;;;;;17.10;48.40;;;;;;5046723;28;19913;-56
2022/03/05 04:43:55;;;;;;;;;;;17.10;48.50;;;;;;5046980;28;19920;-55
2022/03/05 04:46:21;;;;;;;;;;;17.10;48.50;;;;;;5046693;28;19928;-56
2022/03/05 04:48:46;;;;;;;;;;;17.10;48.50;;;;;;5046641;28;19913;-55
2022/03/05 04:51:12;;;;;;;;;;;17.10;48.50;;;;;;5047350;28;19917;-55
2022/03/05 04:53:37;;;;;;;;;;;17.10;48.50;;;;;;5047452;28;19921;-56
2022/03/05 04:56:03;;;;;;;;;;;17.10;48.40;;;;;;5047286;28;19965;-56
2022/03/05 04:58:28;;;;;;;;;;;17.10;48.30;;;;;;5044732;28;20374;-54
2022/03/05 05:00:53;;;;;;;;;;;17.10;48.50;;;;;;5042464;28;20366;-54
2022/03/05 05:03:19;;;;;;;;;;;17.10;48.30;;;;;;5043576;28;19916;-53
2022/03/05 05:05:44;;;;;;;;;;;17.10;48.30;;;;;;5026353;28;19921;-56
2022/03/05 05:08:10;;;;;;;;;;;17.20;48.30;;;;;;5043070;28;19959;-56
2022/03/05 05:10:35;;;;;;;;;;;17.20;48.20;;;;;;5043751;28;19921;-54
2022/03/05 05:13:01;;;;;;;;;;;17.20;48.40;;;;;;5043725;28;19913;-51
2022/03/05 05:15:26;;;;;;;;;;;17.20;48.20;;;;;;5043897;28;19913;-56
2022/03/05 05:17:52;;;;;;;;;;;17.20;48.30;;;;;;5043213;28;19913;-55
2022/03/05 05:20:17;;;;;;;;;;;17.20;48.20;;;;;;5043192;28;19921;-57
2022/03/05 05:22:43;;;;;;;;;;;17.20;48.20;;;;;;5042878;28;20300;-55
2022/03/05 05:25:08;;;;;;;;;;;17.20;48.20;;;;;;5043372;28;19913;-56
2022/03/05 05:27:34;;;;;;;;;;;17.20;48.20;;;;;;5042246;28;20149;-55
2022/03/05 05:29:59;;;;;;;;;;;17.20;48.20;;;;;;5042665;28;19923;-54
2022/03/05 05:32:25;;;;;;;;;;;17.20;48.20;;;;;;5025766;28;19919;-54
2022/03/05 05:34:50;;;;;;;;;;;17.20;48.10;;;;;;5043766;28;20347;-55
2022/03/05 05:37:16;;;;;;;;;;;17.20;48.20;;;;;;5043280;28;19913;-55
2022/03/05 05:39:41;;;;;;;;;;;17.20;48.10;;;;;;5043590;28;19921;-56
2022/03/05 05:42:07;;;;;;;;;;;17.20;48.00;;;;;;5043161;28;19912;-55
2022/03/05 05:44:32;;;;;;;;;;;17.20;48.10;;;;;;5043403;28;19948;-56
2022/03/05 05:46:58;;;;;;;;;;;17.30;48.00;;;;;;5043112;28;19929;-54
2022/03/05 05:49:23;;;;;;;;;;;17.30;48.00;;;;;;5043514;28;19935;-54
2022/03/05 05:51:49;;;;;;;;;;;17.20;47.80;;;;;;5042784;28;20035;-55
2022/03/05 05:54:14;;;;;;;;;;;17.30;48.20;;;;;;5041819;28;20396;-53
2022/03/05 05:56:40;;;;;;;;;;;17.40;48.20;;;;;;5041733;28;19967;-57
2022/03/05 05:59:05;;;;;;;;;;;17.40;48.20;;;;;;5042473;28;19912;-56
2022/03/05 06:01:31;;;;;;;;;;;17.40;48.30;;;;;;5042565;28;19921;-56
2022/03/05 06:03:56;;;;;;;;;;;17.40;48.40;;;;;;5043236;28;19920;-51
2022/03/05 06:06:22;;;;;;;;;;;17.50;48.30;;;;;;5043059;28;20097;-53
2022/03/05 06:08:47;;;;;;;;;;;17.50;48.20;;;;;;5043146;28;20033;-55
2022/03/05 06:11:13;;;;;;;;;;;17.50;48.30;;;;;;5042198;28;19917;-56
2022/03/05 06:13:38;;;;;;;;;;;17.50;48.10;;;;;;5042613;28;19969;-57
2022/03/05 06:16:04;;;;;;;;;;;17.50;48.10;;;;;;5024922;28;19920;-57
2022/03/05 06:18:30;;;;;;;;;;;17.50;47.80;;;;;;5042166;28;19913;-55
2022/03/05 06:20:55;;;;;;;;;;;17.60;47.80;;;;;;5043168;28;19913;-57
2022/03/05 06:23:23;;;;;;;;;;;17.60;47.70;;;;;;5041917;28;20378;-55
2022/03/05 06:25:49;;;;;;;;;;;17.60;47.50;;;;;;5042268;28;19923;-57
2022/03/05 06:28:14;;;;;;;;;;;17.50;47.50;;;;;;5042156;28;19917;-54
2022/03/05 06:30:40;;;;;;;;;;;17.50;47.40;;;;;;5041691;28;20455;-56
2022/03/05 06:33:05;;;;;;;;;;;17.60;47.50;;;;;;5042430;28;19913;-55
2022/03/05 06:35:31;;;;;;;;;;;17.60;47.50;;;;;;5022824;28;19974;-55
2022/03/05 06:37:56;;;;;;;;;;;17.50;47.40;;;;;;5042184;28;19913;-57
2022/03/05 06:40:21;;;;;;;;;;;17.60;47.50;;;;;;5041783;28;20160;-56
2022/03/05 06:42:47;;;;;;;;;;;17.60;47.50;;;;;;5041983;28;19939;-57
2022/03/05 06:45:12;;;;;;;;;;;17.60;47.50;;;;;;5041404;28;19924;-58
2022/03/05 06:47:38;;;;;;;;;;;17.50;47.40;;;;;;5007399;28;19924;-57
2022/03/05 06:50:04;;;;;;;;;;;17.50;47.50;;;;;;5041403;28;19964;-56
2022/03/05 06:52:30;;;;;;;;;;;17.50;47.40;;;;;;5041467;28;19951;-56
2022/03/05 06:54:55;;;;;;;;;;;17.60;47.50;;;;;;5040558;28;19912;-57
2022/03/05 06:57:21;;;;;;;;;;;17.60;47.40;;;;;;5024088;28;19921;-57
2022/03/05 06:59:46;;;;;;;;;;;17.60;47.40;;;;;;5040898;28;20397;-55
2022/03/05 07:02:12;;;;;;;;;;;17.60;47.40;;;;;;5041072;28;19924;-58
2022/03/05 07:04:37;;;;;;;;;;;17.50;47.30;;;;;;5041712;28;19923;-54
2022/03/05 07:07:03;;;;;;;;;;;17.50;47.40;;;;;;5040770;28;19935;-57
2022/03/05 07:09:28;;;;;;;;;;;17.50;47.40;;;;;;5039854;28;19913;-57
2022/03/05 07:11:54;;;;;;;;;;;17.50;47.50;;;;;;5041587;28;19917;-57
2022/03/05 07:14:19;;;;;;;;;;;17.50;47.40;;;;;;5041024;28;19959;-55
2022/03/05 07:16:44;;;;;;;;;;;17.50;47.50;;;;;;5040149;28;20083;-56
2022/03/05 07:19:10;;;;;;;;;;;17.50;47.50;;;;;;5041223;28;19912;-57
2022/03/05 07:21:35;;;;;;;;;;;17.50;47.40;;;;;;5041022;28;19916;-56
2022/03/05 07:24:02;;;;;;;;;;;17.50;47.40;;;;;;5040803;28;19913;-56
2022/03/05 07:26:27;;;;;;;;;;;17.50;47.40;;;;;;5040564;28;19975;-57
2022/03/05 07:28:53;;;;;;;;;;;17.40;47.60;;;;;;5042228;28;20294;-56
2022/03/05 07:31:18;;;;;;;;;;;17.50;47.70;;;;;;5039152;28;20133;-57
2022/03/05 07:33:44;;;;;;;;;;;17.50;48.00;;;;;;5041383;28;20000;-57
2022/03/05 07:36:09;;;;;;;;;;;17.50;48.30;;;;;;5039596;28;20336;-55
2022/03/05 07:38:35;;;;;;;;;;;17.50;48.40;;;;;;5041677;28;19912;-56
2022/03/05 07:41:00;;;;;;;;;;;17.70;48.60;;;;;;5040989;28;19917;-57
2022/03/05 07:43:26;;;;;;;;;;;17.60;48.60;;;;;;5037865;28;19912;-55
2022/03/05 07:45:51;;;;;;;;;;;17.70;48.70;;;;;;5041572;28;19920;-57
2022/03/05 07:48:19;;;;;;;;;;;17.80;48.60;;;;;;5041400;28;19919;-57
2022/03/05 07:50:45;;;;;;;;;;;17.70;48.70;;;;;;5040504;28;20007;-55
2022/03/05 07:53:11;;;;;;;;;;;17.70;48.80;;;;;;5040899;28;19913;-55
2022/03/05 07:55:36;;;;;;;;;;;17.70;48.80;;;;;;5024172;28;20370;-57
2022/03/05 07:58:01;;;;;;;;;;;17.70;48.80;;;;;;5040506;28;19982;-57
2022/03/05 08:00:27;;;;;;;;;;;17.70;48.90;;;;;;5033008;23;19925;-54
2022/03/05 08:02:52;;;;;;;;;;;17.70;49.00;;;;;;5029698;28;19917;-56
2022/03/05 08:05:18;;;;;;;;;;;17.60;49.10;;;;;;5042397;28;20366;-53
2022/03/05 08:07:43;;;;;;;;;;;17.60;49.20;;;;;;5039934;28;19917;-54
2022/03/05 08:10:09;;;;;;;;;;;17.60;49.20;;;;;;5040116;28;19967;-55
2022/03/05 08:12:36;;;;;;;;;;;17.60;49.10;;;;;;5040387;28;21072;-56
2022/03/05 08:15:02;;;;;;;;;;;17.60;49.10;;;;;;5041983;28;19923;-55
2022/03/05 08:17:27;;;;;;;;;;;17.60;49.10;;;;;;5041100;28;19955;-53
2022/03/05 08:19:53;;;;;;;;;;;17.60;49.20;;;;;;5041279;28;19912;-53
2022/03/05 08:22:18;;;;;;;;;;;17.60;49.10;;;;;;5040908;28;20285;-55
2022/03/05 08:24:44;;;;;;;;;;;17.50;49.10;;;;;;5039883;28;19963;-54
2022/03/05 08:27:09;;;;;;;;;;;17.50;49.20;;;;;;5040383;28;19917;-53
2022/03/05 08:29:35;;;;;;;;;;;17.40;49.30;;;;;;5039057;28;19921;-53
2022/03/05 08:32:00;;;;;;;;;;;17.40;49.30;;;;;;5041966;28;20351;-55
2022/03/05 08:34:26;;;;;;;;;;;17.30;49.40;;;;;;5041907;28;19921;-55
2022/03/05 08:36:51;;;;;;;;;;;17.20;49.50;;;;;;5042690;28;19912;-55
2022/03/05 08:39:17;;;;;;;;;;;17.20;49.50;;;;;;5043560;28;19959;-55
2022/03/05 08:41:42;;;;;;;;;;;17.20;49.50;;;;;;5044690;28;19917;-55
2022/03/05 08:44:08;;;;;;;;;;;17.20;49.70;;;;;;5045632;28;19913;-55
2022/03/05 08:46:33;;;;;;;;;;;17.20;49.70;;;;;;5044232;28;19979;-53
2022/03/05 08:48:58;;;;;;;;;;;17.20;49.60;;;;;;5044943;28;19920;-54
2022/03/05 08:51:24;;;;;;;;;;;17.20;49.50;;;;;;5045267;28;19913;-54
2022/03/05 08:53:49;;;;;;;;;;;17.20;49.40;;;;;;5043426;28;20294;-56
2022/03/05 08:56:15;;;;;;;;;;;17.20;49.40;;;;;;5043631;28;19931;-56
2022/03/05 08:58:40;;;;;;;;;;;17.20;49.40;;;;;;5043597;28;20112;-55
2022/03/05 09:01:06;;;;;;;;;;;17.20;49.40;;;;;;5043778;28;19921;-53
2022/03/05 09:03:32;;;;;;;;;;;17.20;49.50;;;;;;5045460;28;20546;-54
2022/03/05 09:05:58;;;;;;;;;;;17.30;49.60;;;;;;5044413;28;19928;-52
2022/03/05 09:08:23;;;;;;;;;;;17.40;50.00;;;;;;5044029;28;19920;-54
2022/03/05 09:10:49;;;;;;;;;;;17.60;50.00;;;;;;5045323;28;20485;-51
2022/03/05 09:13:14;;;;;;;;;;;17.70;50.00;;;;;;5043097;28;20348;-53
2022/03/05 09:15:40;;;;;;;;;;;17.80;50.10;;;;;;5041678;28;20337;-54
2022/03/05 09:18:05;;;;;;;;;;;17.80;50.00;;;;;;5041521;28;19920;-53
2022/03/05 09:20:31;;;;;;;;;;;17.90;49.90;;;;;;5041935;28;19923;-54
2022/03/05 09:22:56;;;;;;;;;;;17.90;50.00;;;;;;5042644;28;20321;-55
2022/03/05 09:25:22;;;;;;;;;;;17.90;49.90;;;;;;5032911;28;19917;-53
2022/03/05 09:27:47;;;;;;;;;;;17.90;50.10;;;;;;5027585;28;20297;-54
2022/03/05 09:30:13;;;;;;;;;;;17.90;50.10;;;;;;5043222;28;19913;-54
2022/03/05 09:32:38;;;;;;;;;;;17.90;50.30;;;;;;5043679;28;20225;-54
2022/03/05 09:35:04;;;;;;;;;;;17.90;50.30;;;;;;5043225;28;19913;-55
2022/03/05 09:37:30;;;;;;;;;;;17.90;50.50;;;;;;5042217;28;21195;-53
2022/03/05 09:39:56;;;;;;;;;;;18.00;50.50;;;;;;5041477;28;20221;-55
2022/03/05 09:42:21;;;;;;;;;;;18.10;50.40;;;;;;5041643;28;19975;-51
2022/03/05 09:44:47;;;;;;;;;;;18.20;50.10;;;;;;5042136;28;20414;-53
2022/03/05 09:47:12;;;;;;;;;;;18.30;50.00;;;;;;5040659;28;19975;-52
2022/03/05 09:49:38;;;;;;;;;;;18.30;49.90;;;;;;5041562;28;21827;-53
2022/03/05 09:52:03;;;;;;;;;;;18.30;49.70;;;;;;5042766;28;19912;-55
2022/03/05 09:54:29;;;;;;;;;;;18.20;49.80;;;;;;5043472;28;19991;-55
2022/03/05 09:56:54;;;;;;;;;;;18.10;49.90;;;;;;5043332;28;19913;-54
2022/03/05 09:59:21;;;;;;;;;;;18.10;49.90;;;;;;5041098;28;20382;-54
2022/03/05 10:01:46;;;;;;;;;;;18.10;50.00;;;;;;5043425;28;19924;-54
2022/03/05 10:04:39;;;;;;;;;;;18.00;50.00;;;;;;5041789;28;19943;-52
2022/03/05 10:07:15;;;;;;;;;;;18.10;50.00;;;;;;5027579;28;19916;-53
2022/03/05 10:09:41;;;;;;;;;;;18.10;49.80;;;;;;5039209;28;19913;-52
2022/03/05 10:12:25;;;;;;;;;;;18.10;49.70;;;;;;5040815;28;19917;-53
2022/03/05 10:15:09;;;;;;;;;;;18.10;49.60;;;;;;5042829;28;20281;-52
2022/03/05 10:17:48;;;;;;;;;;;18.10;49.50;;;;;;5042889;28;20298;-51
2022/03/05 10:20:13;;;;;;;;;;;18.20;49.40;;;;;;5041363;28;19913;-50
2022/03/05 10:22:38;;;;;;;;;;;18.10;49.30;;;;;;5042752;28;19944;-54
2022/03/05 10:25:04;;;;;;;;;;;18.10;49.20;;;;;;5040229;28;19917;-51
2022/03/05 10:27:30;;;;;;;;;;;18.20;49.20;;;;;;5041124;28;20591;-51
2022/03/05 10:29:55;;;;;;;;;;;18.20;48.90;;;;;;5042725;28;19913;-55
2022/03/05 10:32:20;;;;;;;;;;;18.20;48.90;;;;;;5040991;28;20309;-52
2022/03/05 10:34:49;;;;;;;;;;;18.30;48.80;;;;;;5042992;28;19961;-53
2022/03/05 10:37:15;;;;;;;;;;;18.20;48.70;;;;;;5041349;28;19917;-54
2022/03/05 10:39:40;;;;;;;;;;;18.30;48.60;;;;;;5040657;28;19945;-54
2022/03/05 10:42:15;;;;;;;;;;;18.30;48.60;;;;;;5041762;28;20305;-53
2022/03/05 10:44:40;;;;;;;;;;;18.30;48.50;;;;;;5042164;28;19938;-56
2022/03/05 10:47:06;;;;;;;;;;;18.30;48.60;;;;;;5042844;28;19917;-53
2022/03/05 10:49:36;;;;;;;;;;;18.20;49.20;;;;;;5041502;28;19913;-52
2022/03/05 10:52:08;;;;;;;;;;;18.20;48.50;;;;;;5042559;28;20020;-52
2022/03/05 10:54:40;;;;;;;;;;;18.30;48.30;;;;;;5042407;28;19970;-52
2022/03/05 10:57:06;;;;;;;;;;;18.30;48.40;;;;;;5041623;28;19912;-55
2022/03/05 10:59:35;;;;;;;;;;;18.30;48.30;;;;;;5040131;28;19995;-53
2022/03/05 11:02:01;;;;;;;;;;;18.30;48.30;;;;;;5042253;28;19920;-54
2022/03/05 11:04:26;;;;;;;;;;;18.30;48.40;;;;;;5041187;28;20394;-54
2022/03/05 11:06:52;;;;;;;;;;;18.30;48.30;;;;;;5041623;28;19935;-55
2022/03/05 11:09:17;;;;;;;;;;;18.30;48.30;;;;;;5040837;28;19913;-51
2022/03/05 11:11:43;;;;;;;;;;;18.30;48.30;;;;;;5041001;28;19913;-51
2022/03/05 11:14:12;;;;;;;;;;;18.20;48.40;;;;;;5034698;28;19913;-51
2022/03/05 11:16:37;;;;;;;;;;;18.20;48.50;;;;;;5026301;28;20475;-53
2022/03/05 11:19:03;;;;;;;;;;;18.20;48.40;;;;;;5035892;28;19917;-53
2022/03/05 11:21:29;;;;;;;;;;;18.10;48.40;;;;;;5040600;28;20378;-50
2022/03/05 11:23:55;;;;;;;;;;;18.10;48.50;;;;;;5040516;28;20266;-53
2022/03/05 11:26:20;;;;;;;;;;;18.00;48.60;;;;;;5040385;28;19923;-53
2022/03/05 11:28:46;;;;;;;;;;;18.00;48.70;;;;;;5040369;28;19913;-53
2022/03/05 11:31:16;;;;;;;;;;;18.00;48.70;;;;;;5041637;28;19920;-52
2022/03/05 11:33:43;;;;;;;;;;;17.90;48.80;;;;;;5041672;28;19920;-55
2022/03/05 11:36:27;;;;;;;;;;;17.90;48.90;;;;;;5039781;28;19913;-54
2022/03/05 11:39:12;;;;;;;;;;;17.90;49.10;;;;;;5037497;28;19917;-50
2022/03/05 11:41:46;;;;;;;;;;;17.90;49.00;;;;;;5040306;28;20343;-52
2022/03/05 11:44:12;;;;;;;;;;;17.90;48.80;;;;;;5034213;28;20129;-54
2022/03/05 11:46:38;;;;;;;;;;;18.00;48.70;;;;;;5056082;28;19917;-53
2022/03/05 11:49:04;;;;;;;;;;;18.00;48.50;;;;;;5040891;28;20009;-53
2022/03/05 11:51:29;;;;;;;;;;;18.00;48.30;;;;;;5042326;28;20412;-51
2022/03/05 11:54:05;;;;;;;;;;;18.00;48.00;;;;;;5049465;28;20126;-51
2022/03/05 11:56:31;;;;;;;;;;;18.00;47.90;;;;;;5040867;28;20189;-52
2022/03/05 11:58:56;;;;;;;;;;;18.00;47.90;;;;;;5041528;28;20385;-53
2022/03/05 12:01:32;;;;;;;;;;;18.00;47.90;;;;;;5059449;28;20191;-52
2022/03/05 12:04:03;;;;;;;;;;;18.00;47.90;;;;;;5040913;28;19954;-52
2022/03/05 12:06:29;;;;;;;;;;;18.00;48.00;;;;;;5041066;28;19975;-53
2022/03/05 12:08:55;;;;;;;;;;;18.00;47.90;;;;;;5044427;28;19952;-52
2022/03/05 12:11:20;;;;;;;;;;;18.00;47.80;;;;;;5051509;28;20182;-53
2022/03/05 12:13:49;;;;;;;;;;;18.00;47.80;;;;;;5042301;28;19916;-53
2022/03/05 12:16:18;;;;;;;;;;;18.10;47.90;;;;;;5072070;28;19913;-53
2022/03/05 12:18:44;;;;;;;;;;;18.10;47.90;;;;;;5059934;28;19921;-55
2022/03/05 12:21:10;;;;;;;;;;;18.10;47.90;;;;;;5055677;28;19917;-53
2022/03/05 12:23:35;;;;;;;;;;;18.10;47.80;;;;;;5060840;28;19913;-51
2022/03/05 12:26:02;;;;;;;;;;;18.10;47.90;;;;;;5046852;28;20372;-52
2022/03/05 12:28:27;;;;;;;;;;;18.10;47.90;;;;;;5043393;28;20305;-51
2022/03/05 12:30:58;;;;;;;;;;;18.10;48.00;;;;;;5048504;28;19913;-50
2022/03/05 12:33:24;;;;;;;;;;;18.10;48.10;;;;;;5055915;28;20322;-52
2022/03/05 12:35:50;;;;;;;;;;;18.10;48.20;;;;;;5044356;28;19913;-51
2022/03/05 12:38:19;;;;;;;;;;;18.20;48.30;;;;;;5049036;28;20329;-52
2022/03/05 12:40:44;;;;;;;;;;;18.20;48.30;;;;;;5056403;28;19913;-55
2022/03/05 12:43:10;;;;;;;;;;;18.20;48.50;;;;;;5059688;28;20196;-51
2022/03/05 12:45:37;;;;;;;;;;;18.20;48.70;;;;;;5048586;28;19916;-53
2022/03/05 12:48:11;;;;;;;;;;;18.20;48.80;;;;;;5061788;28;19927;-55
2022/03/05 12:50:37;;;;;;;;;;;18.20;48.70;;;;;;5047028;28;19924;-53
2022/03/05 12:53:06;;;;;;;;;;;18.20;48.70;;;;;;5046734;28;20016;-54
2022/03/05 12:55:32;;;;;;;;;;;18.10;48.50;;;;;;5050669;28;20408;-51
2022/03/05 12:57:58;;;;;;;;;;;18.10;48.20;;;;;;5060559;28;19919;-53
2022/03/05 13:00:24;;;;;;;;;;;18.10;48.00;;;;;;5042256;28;20031;-52
2022/03/05 13:02:49;;;;;;;;;;;18.10;47.60;;;;;;5047697;28;20445;-55
2022/03/05 13:05:15;;;;;;;;;;;18.10;47.80;;;;;;5043088;28;19913;-53
2022/03/05 13:07:40;;;;;;;;;;;18.10;46.90;;;;;;5044497;28;19916;-54
2022/03/05 13:10:09;;;;;;;;;;;18.10;46.60;;;;;;5041928;28;19966;-53
2022/03/05 13:12:37;;;;;;;;;;;18.10;46.40;;;;;;5050654;28;20331;-52
2022/03/05 13:15:03;;;;;;;;;;;18.10;46.20;;;;;;5052766;28;20297;-53
2022/03/05 13:17:29;;;;;;;;;;;18.20;46.10;;;;;;5043677;28;19958;-52
2022/03/05 13:19:58;;;;;;;;;;;18.20;45.80;;;;;;5046742;28;19912;-54
2022/03/05 13:22:24;;;;;;;;;;;18.10;45.60;;;;;;5041981;28;20397;-54
2022/03/05 13:24:49;;;;;;;;;;;18.20;45.50;;;;;;5053797;28;20006;-54
2022/03/05 13:27:15;;;;;;;;;;;18.20;45.30;;;;;;5042781;28;20340;-55
2022/03/05 13:29:40;;;;;;;;;;;18.10;45.20;;;;;;5055742;28;19913;-53
2022/03/05 13:32:06;;;;;;;;;;;18.20;45.30;;;;;;5043114;28;20409;-52
2022/03/05 13:34:31;;;;;;;;;;;18.20;45.00;;;;;;5050176;28;20003;-51
2022/03/05 13:37:05;;;;;;;;;;;18.40;45.40;;;;;;5046160;28;19913;-53
2022/03/05 13:39:30;;;;;;;;;;;18.50;45.40;;;;;;5042831;28;19969;-54
2022/03/05 13:41:56;;;;;;;;;;;18.60;45.30;;;;;;5051489;28;19916;-53
2022/03/05 13:44:24;;;;;;;;;;;18.70;45.30;;;;;;5045785;28;19917;-51
2022/03/05 13:46:50;;;;;;;;;;;18.70;45.30;;;;;;5056141;28;20423;-54
2022/03/05 13:49:16;;;;;;;;;;;18.80;45.20;;;;;;5059296;28;19913;-51
2022/03/05 13:51:44;;;;;;;;;;;18.80;45.20;;;;;;5040668;28;19917;-54
2022/03/05 13:54:09;;;;;;;;;;;18.80;45.20;;;;;;5040548;28;20416;-54
2022/03/05 13:56:39;;;;;;;;;;;18.80;45.20;;;;;;5040478;28;19913;-53
2022/03/05 13:59:04;;;;;;;;;;;18.70;45.20;;;;;;5043502;28;19919;-53
2022/03/05 14:01:31;;;;;;;;;;;18.70;45.30;;;;;;5029834;28;19920;-51
2022/03/05 14:04:06;;;;;;;;;;;18.80;45.30;;;;;;5042571;28;19913;-51
2022/03/05 14:06:32;;;;;;;;;;;18.80;45.50;;;;;;5042325;28;20392;-52
2022/03/05 14:08:59;;;;;;;;;;;18.80;45.60;;;;;;5042281;28;19913;-54
2022/03/05 14:11:27;;;;;;;;;;;18.70;45.60;;;;;;5041200;28;20285;-52
2022/03/05 14:13:53;;;;;;;;;;;18.70;45.80;;;;;;5042222;28;20380;-53